createdAt,value
2018-07-15T00:01:20.003Z,99254.72
2018-07-15T00:03:47.911Z,99262.23
2018-07-15T00:06:15.761Z,99259.45
2018-07-15T00:08:43.654Z,99263.36
2018-07-15T00:11:11.577Z,99252.05
2018-07-15T00:13:39.438Z,99255.11
2018-07-15T00:16:07.322Z,99259.50
2018-07-15T00:18:35.216Z,99261.67
2018-07-15T00:21:03.314Z,99264.36
2018-07-15T00:23:31.171Z,99260.98
2018-07-15T00:25:59.006Z,99263.19
2018-07-15T00:28:26.892Z,99261.25
2018-07-15T00:30:54.781Z,99266.53
2018-07-15T00:33:22.656Z,99266.23
2018-07-15T00:35:50.541Z,99268.98
2018-07-15T00:38:18.409Z,99271.19
2018-07-15T00:40:46.341Z,99262.40
2018-07-15T00:43:14.191Z,99266.00
2018-07-15T00:45:42.041Z,99262.17
2018-07-15T00:48:09.983Z,99262.17
2018-07-15T00:53:05.038Z,99257.34
2018-07-15T00:55:32.937Z,99256.69
2018-07-15T00:58:00.776Z,99248.17
2018-07-15T01:00:34.236Z,99255.66
2018-07-15T01:03:02.094Z,99246.58
2018-07-15T01:05:29.953Z,99238.34
2018-07-15T01:07:58.086Z,99240.88
2018-07-15T01:10:25.958Z,99231.55
2018-07-15T01:12:53.782Z,99226.33
2018-07-15T01:15:21.641Z,99223.01
2018-07-15T01:17:49.508Z,99220.36
2018-07-15T01:20:17.662Z,99220.83
2018-07-15T01:22:45.520Z,99218.11
2018-07-15T01:25:13.356Z,99209.85
2018-07-15T01:27:41.245Z,99203.05
2018-07-15T01:30:09.210Z,99204.48
2018-07-15T01:32:37.086Z,99203.29
2018-07-15T01:35:04.987Z,99215.09
2018-07-15T01:37:32.874Z,99216.84
2018-07-15T01:40:01.023Z,99211.30
2018-07-15T01:42:28.879Z,99209.37
2018-07-15T01:44:56.787Z,99212.36
2018-07-15T01:47:24.646Z,99216.27
2018-07-15T01:49:52.493Z,99208.78
2018-07-15T01:52:20.330Z,99214.05
2018-07-15T01:54:48.170Z,99204.45
2018-07-15T01:57:15.992Z,99202.00
2018-07-15T01:59:43.847Z,99208.27
2018-07-15T02:02:11.742Z,99219.30
2018-07-15T02:04:39.602Z,99219.00
2018-07-15T02:07:07.598Z,99215.42
2018-07-15T02:09:35.510Z,99211.88
2018-07-15T02:12:03.350Z,99216.83
2018-07-15T02:14:31.240Z,99217.64
2018-07-15T02:16:59.134Z,99222.87
2018-07-15T02:19:26.973Z,99219.07
2018-07-15T02:21:54.814Z,99221.83
2018-07-15T02:24:22.667Z,99230.30
2018-07-15T02:26:50.539Z,99228.69
2018-07-15T02:29:18.418Z,99227.86
2018-07-15T02:31:46.279Z,99232.51
2018-07-15T02:34:14.132Z,99228.35
2018-07-15T02:36:42.034Z,99225.94
2018-07-15T02:39:10.619Z,99221.83
2018-07-15T02:41:38.469Z,99221.81
2018-07-15T02:44:06.725Z,99227.81
2018-07-15T02:46:34.797Z,99222.89
2018-07-15T02:49:02.663Z,99225.59
2018-07-15T02:51:30.494Z,99227.27
2018-07-15T02:53:58.411Z,99219.95
2018-07-15T02:56:26.290Z,99232.52
2018-07-15T02:58:54.179Z,99226.73
2018-07-15T03:01:22.018Z,99232.47
2018-07-15T03:03:50.002Z,99235.67
2018-07-15T03:06:17.929Z,99236.41
2018-07-15T03:08:45.773Z,99242.38
2018-07-15T03:11:13.742Z,99224.45
2018-07-15T03:13:41.569Z,99221.86
2018-07-15T03:16:09.460Z,99221.47
2018-07-15T03:18:37.361Z,99211.19
2018-07-15T03:21:05.290Z,99210.80
2018-07-15T03:23:33.166Z,99214.20
2018-07-15T03:26:01.281Z,99205.89
2018-07-15T03:28:29.148Z,99206.34
2018-07-15T03:30:57.072Z,99206.15
2018-07-15T03:33:24.968Z,99212.19
2018-07-15T03:35:52.799Z,99199.39
2018-07-15T03:38:20.618Z,99197.18
2018-07-15T03:40:48.463Z,99195.16
2018-07-15T03:43:16.352Z,99203.60
2018-07-15T03:45:44.217Z,99199.72
2018-07-15T03:48:12.350Z,99201.97
2018-07-15T03:50:40.534Z,99204.91
2018-07-15T03:53:08.395Z,99206.25
2018-07-15T03:55:36.283Z,99203.38
2018-07-15T03:58:04.159Z,99199.77
2018-07-15T04:00:32.018Z,99210.38
2018-07-15T04:02:59.790Z,99204.05
2018-07-15T04:05:27.679Z,99206.80
2018-07-15T04:07:55.553Z,99203.13
2018-07-15T04:10:23.439Z,99205.75
2018-07-15T04:12:51.293Z,99211.36
2018-07-15T04:15:19.187Z,99207.61
2018-07-15T04:17:51.539Z,99199.73
2018-07-15T04:20:19.423Z,99203.66
2018-07-15T04:22:47.269Z,99204.58
2018-07-15T04:25:15.129Z,99205.75
2018-07-15T04:27:42.950Z,99207.31
2018-07-15T04:30:10.794Z,99207.08
2018-07-15T04:32:38.675Z,99198.05
2018-07-15T04:35:06.594Z,99201.26
2018-07-15T04:37:34.473Z,99193.29
2018-07-15T04:40:02.347Z,99200.02
2018-07-15T04:42:30.260Z,99213.86
2018-07-15T04:44:58.162Z,99218.16
2018-07-15T04:47:25.990Z,99213.86
2018-07-15T04:49:53.861Z,99213.98
2018-07-15T04:52:21.709Z,99209.93
2018-07-15T04:54:49.615Z,99212.69
2018-07-15T04:57:17.447Z,99219.86
2018-07-15T04:59:45.257Z,99208.22
2018-07-15T05:02:13.070Z,99204.81
2018-07-15T05:04:40.921Z,99211.92
2018-07-15T05:07:08.782Z,99217.88
2018-07-15T05:09:36.670Z,99221.09
2018-07-15T05:12:04.517Z,99214.25
2018-07-15T05:14:32.378Z,99220.79
2018-07-15T05:17:00.609Z,99226.84
2018-07-15T05:19:28.615Z,99224.80
2018-07-15T05:21:56.493Z,99220.23
2018-07-15T05:24:24.329Z,99232.83
2018-07-15T05:26:52.181Z,99224.59
2018-07-15T05:29:20.025Z,99228.52
2018-07-15T05:31:47.829Z,99233.77
2018-07-15T05:34:15.705Z,99229.27
2018-07-15T05:36:43.629Z,99231.82
2018-07-15T05:39:11.414Z,99229.72
2018-07-15T05:41:39.305Z,99224.75
2018-07-15T05:44:07.182Z,99213.66
2018-07-15T05:46:35.076Z,99221.45
2018-07-15T05:49:02.946Z,99229.61
2018-07-15T05:51:30.802Z,99222.48
2018-07-15T05:53:58.647Z,99218.13
2018-07-15T05:56:26.502Z,99220.62
2018-07-15T05:58:54.803Z,99232.42
2018-07-15T06:01:22.887Z,99228.48
2018-07-15T06:03:50.657Z,99218.33
2018-07-15T06:06:18.522Z,99227.73
2018-07-15T06:08:46.402Z,99217.69
2018-07-15T06:11:14.363Z,99210.19
2018-07-15T06:13:42.286Z,99212.16
2018-07-15T06:16:10.224Z,99216.50
2018-07-15T06:18:38.120Z,99210.80
2018-07-15T06:21:05.994Z,99214.52
2018-07-15T06:23:33.861Z,99208.96
2018-07-15T06:28:40.470Z,99219.77
2018-07-15T06:31:08.309Z,99204.33
2018-07-15T06:33:36.107Z,99209.02
2018-07-15T06:36:03.993Z,99207.41
2018-07-15T06:38:31.766Z,99198.37
2018-07-15T06:40:59.633Z,99202.63
2018-07-15T06:43:27.510Z,99209.09
2018-07-15T06:45:55.330Z,99210.34
2018-07-15T06:48:23.154Z,99197.31
2018-07-15T06:50:50.985Z,99211.84
2018-07-15T06:53:18.805Z,99207.87
2018-07-15T06:55:46.698Z,99204.72
2018-07-15T06:58:14.513Z,99195.13
2018-07-15T07:00:42.364Z,99203.58
2018-07-15T07:03:10.165Z,99198.67
2018-07-15T07:05:38.036Z,99200.82
2018-07-15T07:08:05.913Z,99204.70
2018-07-15T07:10:33.769Z,99201.83
2018-07-15T07:13:01.638Z,99194.30
2018-07-15T07:15:29.413Z,99200.17
2018-07-15T07:17:57.267Z,99200.28
2018-07-15T07:20:25.165Z,99202.66
2018-07-15T07:22:53.634Z,99205.91
2018-07-15T07:25:21.486Z,99202.21
2018-07-15T07:27:49.377Z,99209.44
2018-07-15T07:30:17.245Z,99193.80
2018-07-15T07:32:45.244Z,99208.95
2018-07-15T07:35:13.104Z,99209.84
2018-07-15T07:37:40.955Z,99204.05
2018-07-15T07:40:09.147Z,99200.95
2018-07-15T07:42:37.004Z,99196.45
2018-07-15T07:45:05.007Z,99197.17
2018-07-15T07:47:32.843Z,99194.29
2018-07-15T07:50:00.932Z,99197.52
2018-07-15T07:52:28.766Z,99199.40
2018-07-15T07:54:56.615Z,99204.28
2018-07-15T07:57:24.818Z,99191.59
2018-07-15T07:59:52.665Z,99212.31
2018-07-15T08:02:20.574Z,99202.64
2018-07-15T08:04:48.442Z,99198.00
2018-07-15T08:07:16.273Z,99196.16
2018-07-15T08:09:44.048Z,99197.73
2018-07-15T08:12:11.918Z,99192.55
2018-07-15T08:14:39.745Z,99196.80
2018-07-15T08:17:07.575Z,99196.44
2018-07-15T08:19:35.434Z,99194.10
2018-07-15T08:22:03.327Z,99197.28
2018-07-15T08:24:31.197Z,99181.58
2018-07-15T08:26:59.035Z,99180.45
2018-07-15T08:29:26.886Z,99188.70
2018-07-15T08:31:54.662Z,99178.23
2018-07-15T08:34:22.530Z,99182.59
2018-07-15T08:36:50.304Z,99177.03
2018-07-15T08:39:18.825Z,99162.37
2018-07-15T08:41:46.649Z,99168.66
2018-07-15T08:44:14.465Z,99168.65
2018-07-15T08:46:42.420Z,99155.12
2018-07-15T08:49:10.270Z,99165.27
2018-07-15T08:51:38.090Z,99165.07
2018-07-15T08:54:05.953Z,99167.47
2018-07-15T08:56:34.138Z,99155.47
2018-07-15T08:59:02.027Z,99162.06
2018-07-15T09:01:29.883Z,99162.44
2018-07-15T09:03:57.748Z,99159.36
2018-07-15T09:06:25.638Z,99160.22
2018-07-15T09:08:53.476Z,99168.13
2018-07-15T09:11:21.356Z,99165.02
2018-07-15T09:13:49.204Z,99162.09
2018-07-15T09:16:17.194Z,99171.31
2018-07-15T09:18:44.998Z,99168.63
2018-07-15T09:21:12.870Z,99173.45
2018-07-15T09:23:40.725Z,99167.44
2018-07-15T09:26:08.545Z,99171.19
2018-07-15T09:28:36.434Z,99168.09
2018-07-15T09:31:04.297Z,99167.19
2018-07-15T09:33:32.126Z,99159.36
2018-07-15T09:36:00.047Z,99169.16
2018-07-15T09:38:27.923Z,99163.42
2018-07-15T09:40:55.842Z,99156.42
2018-07-15T09:43:23.724Z,99155.41
2018-07-15T09:45:51.494Z,99147.52
2018-07-15T09:48:19.370Z,99151.48
2018-07-15T09:50:47.255Z,99152.73
2018-07-15T09:53:15.129Z,99166.62
2018-07-15T09:55:43.039Z,99162.30
2018-07-15T09:58:10.968Z,99151.91
2018-07-15T10:00:44.523Z,99153.79
2018-07-15T10:03:12.375Z,99151.94
2018-07-15T10:05:40.201Z,99151.47
2018-07-15T10:08:08.129Z,99142.38
2018-07-15T10:10:35.987Z,99149.02
2018-07-15T10:13:03.777Z,99151.84
2018-07-15T10:15:31.622Z,99146.13
2018-07-15T10:17:59.488Z,99157.05
2018-07-15T10:20:27.323Z,99154.87
2018-07-15T10:22:55.184Z,99151.72
2018-07-15T10:25:23.026Z,99148.21
2018-07-15T10:27:50.806Z,99143.22
2018-07-15T10:30:18.573Z,99151.94
2018-07-15T10:32:46.692Z,99148.67
2018-07-15T10:35:14.485Z,99145.38
2018-07-15T10:37:42.347Z,99152.81
2018-07-15T10:40:10.202Z,99137.28
2018-07-15T10:42:38.087Z,99141.14
2018-07-15T10:45:06.163Z,99142.13
2018-07-15T10:47:34.140Z,99138.70
2018-07-15T10:50:02.018Z,99134.72
2018-07-15T10:52:29.823Z,99124.87
2018-07-15T10:54:57.679Z,99128.31
2018-07-15T10:57:25.511Z,99114.22
2018-07-15T10:59:53.394Z,99128.23
2018-07-15T11:02:21.271Z,99135.42
2018-07-15T11:04:49.139Z,99122.75
2018-07-15T11:07:17.018Z,99119.84
2018-07-15T11:09:45.149Z,99123.84
2018-07-15T11:12:13.069Z,99117.84
2018-07-15T11:14:40.878Z,99108.33
2018-07-15T11:17:08.665Z,99114.83
2018-07-15T11:19:36.642Z,99110.16
2018-07-15T11:22:04.574Z,99105.25
2018-07-15T11:24:32.397Z,99102.50
2018-07-15T11:27:00.369Z,99105.89
2018-07-15T11:29:28.468Z,99101.83
2018-07-15T11:31:56.297Z,99102.86
2018-07-15T11:34:24.138Z,99103.20
2018-07-15T11:36:52.064Z,99099.61
2018-07-15T11:39:19.906Z,99098.19
2018-07-15T11:41:47.698Z,99090.73
2018-07-15T11:44:15.521Z,99090.02
2018-07-15T11:46:43.384Z,99082.70
2018-07-15T11:49:11.244Z,99079.91
2018-07-15T11:51:39.098Z,99082.77
2018-07-15T11:54:06.971Z,99085.73
2018-07-15T11:56:34.777Z,99088.34
2018-07-15T11:59:02.667Z,99084.61
2018-07-15T12:01:30.544Z,99084.53
2018-07-15T12:03:58.546Z,99069.02
2018-07-15T12:06:26.395Z,99075.13
2018-07-15T12:08:54.204Z,99077.11
2018-07-15T12:11:22.034Z,99077.36
2018-07-15T12:13:49.875Z,99079.59
2018-07-15T12:16:17.741Z,99061.38
2018-07-15T12:18:45.694Z,99075.25
2018-07-15T12:21:13.554Z,99067.74
2018-07-15T12:23:41.666Z,99063.91
2018-07-15T12:26:09.472Z,99072.67
2018-07-15T12:28:37.310Z,99054.98
2018-07-15T12:31:05.112Z,99050.41
2018-07-15T12:33:33.222Z,99058.23
2018-07-15T12:36:01.154Z,99058.33
2018-07-15T12:38:29.043Z,99053.97
2018-07-15T12:40:56.853Z,99053.73
2018-07-15T12:43:24.951Z,99032.52
2018-07-15T12:45:52.838Z,99040.49
2018-07-15T12:48:20.791Z,99046.86
2018-07-15T12:50:48.857Z,99045.47
2018-07-15T12:53:16.925Z,99033.13
2018-07-15T12:55:44.932Z,99033.66
2018-07-15T12:58:12.901Z,99035.06
2018-07-15T13:00:40.910Z,99030.13
2018-07-15T13:03:08.888Z,99034.09
2018-07-15T13:05:36.857Z,99030.12
2018-07-15T13:08:04.716Z,99032.91
2018-07-15T13:10:32.651Z,99022.95
2018-07-15T13:13:00.608Z,99035.61
2018-07-15T13:15:28.615Z,99032.05
2018-07-15T13:17:56.575Z,99028.49
2018-07-15T13:20:24.390Z,99028.99
2018-07-15T13:22:52.412Z,99032.27
2018-07-15T13:25:20.320Z,99028.28
2018-07-15T13:27:48.374Z,99032.72
2018-07-15T13:30:16.393Z,99034.44
2018-07-15T13:32:44.326Z,99025.58
2018-07-15T13:35:12.373Z,99026.23
2018-07-15T13:37:40.333Z,99027.25
2018-07-15T13:40:08.320Z,99032.33
2018-07-15T13:42:36.392Z,99028.17
2018-07-15T13:45:04.352Z,99024.48
2018-07-15T13:47:32.245Z,99038.80
2018-07-15T13:50:00.125Z,99031.34
2018-07-15T13:52:28.060Z,99036.59
2018-07-15T13:54:55.995Z,99030.19
2018-07-15T13:57:23.886Z,99022.86
2018-07-15T13:59:51.777Z,99028.91
2018-07-15T14:02:19.689Z,99018.09
2018-07-15T14:04:47.563Z,99014.31
2018-07-15T14:07:15.394Z,99012.10
2018-07-15T14:09:43.157Z,99010.31
2018-07-15T14:12:10.991Z,99005.39
2018-07-15T14:14:38.853Z,99002.08
2018-07-15T14:17:06.809Z,99004.97
2018-07-15T14:19:35.474Z,99011.59
2018-07-15T14:22:03.574Z,99004.06
2018-07-15T14:24:31.516Z,99012.61
2018-07-15T14:26:59.371Z,99004.34
2018-07-15T14:29:27.214Z,99002.59
2018-07-15T14:31:54.971Z,99007.41
2018-07-15T14:34:22.854Z,99002.16
2018-07-15T14:36:50.720Z,98995.48
2018-07-15T14:39:18.645Z,99000.88
2018-07-15T14:41:46.691Z,98999.80
2018-07-15T14:44:14.637Z,98992.32
2018-07-15T14:46:42.579Z,99000.05
2018-07-15T14:49:10.648Z,99001.52
2018-07-15T14:51:38.546Z,99002.71
2018-07-15T14:54:06.456Z,98999.76
2018-07-15T14:56:34.296Z,98997.75
2018-07-15T14:59:02.226Z,98993.47
2018-07-15T15:01:30.075Z,98985.63
2018-07-15T15:03:57.963Z,98999.64
2018-07-15T15:06:26.597Z,98986.05
2018-07-15T15:08:54.495Z,99002.13
2018-07-15T15:11:22.481Z,98991.70
2018-07-15T15:13:50.641Z,98984.48
2018-07-15T15:16:18.943Z,98992.80
2018-07-15T15:18:48.119Z,98980.48
2018-07-15T15:21:16.440Z,98993.39
2018-07-15T15:23:44.409Z,98990.68
2018-07-15T15:26:12.297Z,98976.12
2018-07-15T15:28:40.378Z,98991.48
2018-07-15T15:31:08.640Z,98988.92
2018-07-15T15:33:36.898Z,98987.46
2018-07-15T15:36:04.747Z,98989.82
2018-07-15T15:38:32.974Z,98982.53
2018-07-15T15:41:01.091Z,98988.58
2018-07-15T15:43:29.145Z,98980.33
2018-07-15T15:45:57.621Z,98972.86
2018-07-15T15:48:25.585Z,98984.75
2018-07-15T15:50:53.771Z,98984.05
2018-07-15T15:53:21.614Z,98976.27
2018-07-15T15:55:49.546Z,98977.30
2018-07-15T15:58:17.653Z,98984.71
2018-07-15T16:00:45.583Z,98981.05
2018-07-15T16:03:13.650Z,98984.92
2018-07-15T16:05:41.545Z,98978.52
2018-07-15T16:08:09.377Z,98980.16
2018-07-15T16:10:37.398Z,98978.83
2018-07-15T16:13:06.707Z,98981.09
2018-07-15T16:15:34.564Z,98969.73
2018-07-15T16:18:04.046Z,98975.84
2018-07-15T16:20:32.013Z,98978.11
2018-07-15T16:23:00.414Z,98976.39
2018-07-15T16:25:28.842Z,98971.10
2018-07-15T16:27:56.965Z,98974.65
2018-07-15T16:30:25.217Z,98963.84
2018-07-15T16:32:53.174Z,98966.03
2018-07-15T16:35:21.059Z,98965.97
2018-07-15T16:37:48.933Z,98971.84
2018-07-15T16:40:16.757Z,98972.38
2018-07-15T16:42:46.691Z,98965.66
2018-07-15T16:45:15.794Z,98972.81
2018-07-15T16:47:44.948Z,98967.77
2018-07-15T16:50:16.088Z,98963.14
2018-07-15T16:52:44.235Z,98972.72
2018-07-15T16:55:12.187Z,98968.61
2018-07-15T16:57:40.307Z,98972.34
2018-07-15T17:00:08.312Z,98974.44
2018-07-15T17:02:36.527Z,98976.02
2018-07-15T17:05:04.448Z,98975.08
2018-07-15T17:07:32.633Z,98979.16
2018-07-15T17:10:00.509Z,98971.06
2018-07-15T17:12:28.404Z,98966.61
2018-07-15T17:14:56.214Z,98967.04
2018-07-15T17:17:24.135Z,98970.52
2018-07-15T17:19:51.994Z,98966.84
2018-07-15T17:22:19.777Z,98969.79
2018-07-15T17:24:47.622Z,98966.91
2018-07-15T17:27:15.407Z,98970.89
2018-07-15T17:29:43.233Z,98966.34
2018-07-15T17:32:11.124Z,98973.43
2018-07-15T17:34:39.003Z,98973.95
2018-07-15T17:37:06.818Z,98974.78
2018-07-15T17:39:34.614Z,98981.72
2018-07-15T17:42:02.426Z,98980.44
2018-07-15T17:44:30.269Z,98969.45
2018-07-15T17:46:58.243Z,98971.33
2018-07-15T17:49:26.133Z,98971.13
2018-07-15T17:51:54.045Z,98966.28
2018-07-15T17:54:21.900Z,98971.92
2018-07-15T17:56:49.798Z,98965.48
2018-07-15T17:59:17.712Z,98969.38
2018-07-15T18:01:45.489Z,98970.92
2018-07-15T18:04:13.372Z,98976.48
2018-07-15T18:06:41.219Z,98976.47
2018-07-15T18:09:09.144Z,98983.73
2018-07-15T18:11:37.162Z,98974.99
2018-07-15T18:14:05.265Z,98981.59
2018-07-15T18:16:33.199Z,98986.72
2018-07-15T18:19:02.055Z,98991.45
2018-07-15T18:21:29.984Z,98994.50
2018-07-15T18:23:57.766Z,98995.70
2018-07-15T18:26:26.045Z,98998.07
2018-07-15T18:28:53.950Z,98994.37
2018-07-15T18:31:21.761Z,98997.94
2018-07-15T18:33:49.708Z,99005.03
2018-07-15T18:36:17.647Z,99008.73
2018-07-15T18:38:45.616Z,99010.70
2018-07-15T18:41:13.468Z,99011.46
2018-07-15T18:43:41.365Z,99014.84
2018-07-15T18:46:09.320Z,99011.34
2018-07-15T18:48:37.121Z,99013.41
2018-07-15T18:51:04.978Z,99017.63
2018-07-15T18:53:32.814Z,99011.46
2018-07-15T18:56:00.595Z,99014.41
2018-07-15T18:58:28.411Z,99016.88
2018-07-15T19:00:56.185Z,99030.66
2018-07-15T19:03:23.952Z,99028.25
2018-07-15T19:05:51.742Z,99035.55
2018-07-15T19:08:19.582Z,99037.62
2018-07-15T19:10:47.382Z,99039.42
2018-07-15T19:13:15.277Z,99038.13
2018-07-15T19:15:43.133Z,99035.09
2018-07-15T19:18:10.980Z,99030.09
2018-07-15T19:20:38.819Z,99030.09
2018-07-15T19:23:06.667Z,99026.76
2018-07-15T19:25:34.584Z,99024.43
2018-07-15T19:28:02.397Z,99026.81
2018-07-15T19:30:30.270Z,99030.02
2018-07-15T19:32:58.204Z,99021.66
2018-07-15T19:35:26.343Z,99021.39
2018-07-15T19:37:54.277Z,99024.98
2018-07-15T19:40:22.212Z,99023.43
2018-07-15T19:42:50.006Z,99029.45
2018-07-15T19:45:17.851Z,99025.02
2018-07-15T19:47:45.632Z,99026.81
2018-07-15T19:50:13.453Z,99025.55
2018-07-15T19:52:41.266Z,99028.19
2018-07-15T19:55:09.038Z,99027.89
2018-07-15T19:57:36.832Z,99032.57
2018-07-15T20:00:04.683Z,99031.91
2018-07-15T20:02:32.506Z,99034.01
2018-07-15T20:05:00.391Z,99039.30
2018-07-15T20:07:28.173Z,99038.22
2018-07-15T20:09:55.987Z,99043.11
2018-07-15T20:12:23.806Z,99037.06
2018-07-15T20:14:51.566Z,99045.34
2018-07-15T20:17:19.666Z,99035.08
2018-07-15T20:19:47.589Z,99051.59
2018-07-15T20:22:15.347Z,99045.64
2018-07-15T20:24:43.475Z,99048.34
2018-07-15T20:27:11.598Z,99048.95
2018-07-15T20:29:39.422Z,99051.05
2018-07-15T20:32:07.201Z,99053.81
2018-07-15T20:34:35.004Z,99060.98
2018-07-15T20:37:02.823Z,99054.16
2018-07-15T20:39:30.603Z,99064.20
2018-07-15T20:41:58.414Z,99063.98
2018-07-15T20:44:26.218Z,99067.10
2018-07-15T20:46:54.013Z,99063.80
2018-07-15T20:49:21.812Z,99064.57
2018-07-15T20:51:49.648Z,99071.41
2018-07-15T20:54:17.450Z,99080.03
2018-07-15T20:56:45.250Z,99081.61
2018-07-15T20:59:13.050Z,99082.38
2018-07-15T21:01:40.840Z,99078.75
2018-07-15T21:04:08.606Z,99082.68
2018-07-15T21:06:36.385Z,99074.00
2018-07-15T21:09:05.638Z,99075.10
2018-07-15T21:11:33.477Z,99080.76
2018-07-15T21:14:01.457Z,99087.53
2018-07-15T21:16:29.276Z,99085.75
2018-07-15T21:18:57.401Z,99079.75
2018-07-15T21:21:25.178Z,99089.39
2018-07-15T21:23:53.105Z,99088.02
2018-07-15T21:26:20.970Z,99084.73
2018-07-15T21:28:48.758Z,99085.32
2018-07-15T21:31:16.965Z,99090.68
2018-07-15T21:33:44.773Z,99089.23
2018-07-15T21:36:12.529Z,99095.58
2018-07-15T21:38:40.307Z,99095.13
2018-07-15T21:41:08.067Z,99094.42
2018-07-15T21:43:35.830Z,99087.28
2018-07-15T21:46:03.641Z,99085.93
2018-07-15T21:48:31.435Z,99086.33
2018-07-15T21:50:59.230Z,99084.48
2018-07-15T21:53:27.023Z,99083.98
2018-07-15T21:55:55.091Z,99077.09
2018-07-15T21:58:22.911Z,99077.58
2018-07-15T22:00:50.875Z,99077.58
2018-07-15T22:03:18.669Z,99086.42
2018-07-15T22:05:46.451Z,99079.44
2018-07-15T22:08:25.385Z,99083.92
2018-07-15T22:10:53.220Z,99085.63
2018-07-15T22:13:21.060Z,99090.27
2018-07-15T22:15:48.898Z,99089.25
2018-07-15T22:18:16.682Z,99093.02
2018-07-15T22:20:44.473Z,99094.66
2018-07-15T22:23:12.249Z,99089.88
2018-07-15T22:25:40.085Z,99083.97
2018-07-15T22:28:07.877Z,99075.64
2018-07-15T22:30:35.657Z,99076.86
2018-07-15T22:33:03.442Z,99068.83
2018-07-15T22:35:31.208Z,99074.67
2018-07-15T22:37:58.977Z,99080.86
2018-07-15T22:40:26.897Z,99081.27
2018-07-15T22:42:54.662Z,99082.05
2018-07-15T22:45:22.434Z,99080.30
2018-07-15T22:47:50.548Z,99082.93
2018-07-15T22:50:18.326Z,99089.47
2018-07-15T22:52:46.109Z,99093.05
2018-07-15T22:55:13.946Z,99090.62
2018-07-15T22:57:41.819Z,99086.28
2018-07-15T23:00:09.770Z,99091.03
2018-07-15T23:02:37.534Z,99080.64
2018-07-15T23:05:59.046Z,99081.25
2018-07-15T23:08:28.032Z,99078.50
2018-07-15T23:10:55.884Z,99075.68
2018-07-15T23:13:23.716Z,99070.66
2018-07-15T23:15:51.772Z,99077.02
2018-07-15T23:18:19.678Z,99078.22
2018-07-15T23:20:48.183Z,99079.94
2018-07-15T23:23:16.245Z,99087.80
2018-07-15T23:25:44.160Z,99085.16
2018-07-15T23:28:13.042Z,99081.48
2018-07-15T23:30:41.382Z,99087.70
2018-07-15T23:33:09.553Z,99087.52
2018-07-15T23:35:37.401Z,99094.47
2018-07-15T23:38:05.331Z,99096.38
2018-07-15T23:40:33.295Z,99096.45
2018-07-15T23:43:01.434Z,99096.45
2018-07-15T23:45:30.134Z,99092.13
2018-07-15T23:47:57.984Z,99088.55
2018-07-15T23:50:25.970Z,99090.47
2018-07-15T23:52:54.034Z,99097.16
2018-07-15T23:55:22.226Z,99095.41
2018-07-15T23:57:49.977Z,99096.31
